sensor_id;sensor_type;location;lat;lon;timestamp;pressure;altitude;pressure_sealevel;temperature;humidity
79534;BME280;68982;52.160;6.736;2023-09-19T00:01:06;100413.81;;;14.99;89.43
79534;BME280;68982;52.160;6.736;2023-09-19T00:03:34;100411.69;;;14.83;90.64
79534;BME280;68982;52.160;6.736;2023-09-19T00:06:02;100418.94;;;14.89;89.47
79534;BME280;68982;52.160;6.736;2023-09-19T00:08:27;100418.84;;;14.96;90.31
79534;BME280;68982;52.160;6.736;2023-09-19T00:10:54;100424.28;;;14.96;90.13
79534;BME280;68982;52.160;6.736;2023-09-19T00:13:19;100425.56;;;14.93;90.58
79534;BME280;68982;52.160;6.736;2023-09-19T00:15:47;100425.78;;;14.91;90.55
79534;BME280;68982;52.160;6.736;2023-09-19T00:18:17;100427.81;;;14.96;90.14
79534;BME280;68982;52.160;6.736;2023-09-19T00:20:44;100443.91;;;14.98;89.72
79534;BME280;68982;52.160;6.736;2023-09-19T00:23:13;100437.63;;;14.97;89.04
79534;BME280;68982;52.160;6.736;2023-09-19T00:25:39;100432.69;;;14.94;89.03
79534;BME280;68982;52.160;6.736;2023-09-19T00:28:05;100440.44;;;14.90;87.79
79534;BME280;68982;52.160;6.736;2023-09-19T00:30:32;100436.91;;;14.90;88.37
79534;BME280;68982;52.160;6.736;2023-09-19T00:32:58;100445.66;;;14.92;87.48
79534;BME280;68982;52.160;6.736;2023-09-19T00:35:23;100456.03;;;14.95;88.31
79534;BME280;68982;52.160;6.736;2023-09-19T00:37:50;100457.31;;;14.92;88.26
79534;BME280;68982;52.160;6.736;2023-09-19T00:40:16;100449.47;;;14.84;88.95
79534;BME280;68982;52.160;6.736;2023-09-19T00:42:43;100448.88;;;14.82;88.23
79534;BME280;68982;52.160;6.736;2023-09-19T00:45:10;100458.22;;;14.86;88.32
79534;BME280;68982;52.160;6.736;2023-09-19T00:47:49;100454.53;;;14.81;88.31
79534;BME280;68982;52.160;6.736;2023-09-19T00:50:17;100462.00;;;14.85;87.64
79534;BME280;68982;52.160;6.736;2023-09-19T00:52:46;100455.13;;;14.83;87.79
79534;BME280;68982;52.160;6.736;2023-09-19T00:55:14;100458.69;;;14.83;87.59
79534;BME280;68982;52.160;6.736;2023-09-19T00:57:39;100471.19;;;14.84;87.75
79534;BME280;68982;52.160;6.736;2023-09-19T01:00:09;100469.97;;;14.80;88.14
79534;BME280;68982;52.160;6.736;2023-09-19T01:02:42;100462.22;;;14.84;88.58
79534;BME280;68982;52.160;6.736;2023-09-19T01:05:10;100453.94;;;14.79;88.89
79534;BME280;68982;52.160;6.736;2023-09-19T01:07:36;100479.63;;;14.76;89.89
79534;BME280;68982;52.160;6.736;2023-09-19T01:10:06;100469.22;;;14.73;89.53
79534;BME280;68982;52.160;6.736;2023-09-19T01:12:57;100483.34;;;14.82;89.83
79534;BME280;68982;52.160;6.736;2023-09-19T01:15:40;100488.75;;;14.82;91.05
79534;BME280;68982;52.160;6.736;2023-09-19T01:21:18;100485.97;;;14.70;92.68
79534;BME280;68982;52.160;6.736;2023-09-19T01:26:48;100482.78;;;14.73;93.10
79534;BME280;68982;52.160;6.736;2023-09-19T01:29:37;100488.75;;;14.63;92.10
79534;BME280;68982;52.160;6.736;2023-09-19T01:32:05;100487.69;;;14.64;92.42
79534;BME280;68982;52.160;6.736;2023-09-19T01:34:48;100494.19;;;14.63;92.25
79534;BME280;68982;52.160;6.736;2023-09-19T01:37:16;100501.47;;;14.63;92.32
79534;BME280;68982;52.160;6.736;2023-09-19T01:40:02;100503.00;;;14.59;92.21
79534;BME280;68982;52.160;6.736;2023-09-19T01:42:41;100509.84;;;14.61;92.08
79534;BME280;68982;52.160;6.736;2023-09-19T01:47:52;100501.78;;;14.55;91.63
79534;BME280;68982;52.160;6.736;2023-09-19T01:53:10;100504.25;;;14.49;90.43
79534;BME280;68982;52.160;6.736;2023-09-19T01:55:45;100502.22;;;14.45;91.28
79534;BME280;68982;52.160;6.736;2023-09-19T01:58:20;100497.53;;;14.34;91.63
79534;BME280;68982;52.160;6.736;2023-09-19T02:00:48;100505.00;;;14.38;91.13
79534;BME280;68982;52.160;6.736;2023-09-19T02:03:16;100501.47;;;14.38;90.80
79534;BME280;68982;52.160;6.736;2023-09-19T02:05:48;100513.13;;;14.38;90.91
79534;BME280;68982;52.160;6.736;2023-09-19T02:08:17;100507.75;;;14.31;91.53
79534;BME280;68982;52.160;6.736;2023-09-19T02:10:43;100504.88;;;14.26;91.08
79534;BME280;68982;52.160;6.736;2023-09-19T02:13:17;100517.41;;;14.27;91.33
79534;BME280;68982;52.160;6.736;2023-09-19T02:15:44;100515.19;;;14.18;91.28
79534;BME280;68982;52.160;6.736;2023-09-19T02:18:10;100523.09;;;14.19;91.57
79534;BME280;68982;52.160;6.736;2023-09-19T02:20:36;100524.78;;;14.14;91.82
79534;BME280;68982;52.160;6.736;2023-09-19T02:23:02;100525.03;;;14.12;92.13
79534;BME280;68982;52.160;6.736;2023-09-19T02:25:28;100530.22;;;14.14;92.42
79534;BME280;68982;52.160;6.736;2023-09-19T02:27:53;100521.31;;;14.06;92.45
79534;BME280;68982;52.160;6.736;2023-09-19T02:30:19;100527.78;;;14.05;92.18
79534;BME280;68982;52.160;6.736;2023-09-19T02:32:48;100523.41;;;14.04;92.57
79534;BME280;68982;52.160;6.736;2023-09-19T02:35:14;100523.44;;;13.98;92.01
79534;BME280;68982;52.160;6.736;2023-09-19T02:37:40;100514.31;;;13.92;92.18
79534;BME280;68982;52.160;6.736;2023-09-19T02:40:05;100528.00;;;14.04;92.06
79534;BME280;68982;52.160;6.736;2023-09-19T02:42:44;100528.88;;;13.98;92.78
79534;BME280;68982;52.160;6.736;2023-09-19T02:45:14;100527.22;;;13.97;92.74
79534;BME280;68982;52.160;6.736;2023-09-19T02:47:42;100512.22;;;13.94;92.67
79534;BME280;68982;52.160;6.736;2023-09-19T02:50:08;100515.97;;;13.93;92.47
79534;BME280;68982;52.160;6.736;2023-09-19T02:52:37;100515.03;;;13.81;92.93
79534;BME280;68982;52.160;6.736;2023-09-19T02:55:02;100527.50;;;13.82;93.27
79534;BME280;68982;52.160;6.736;2023-09-19T02:57:29;100527.09;;;13.78;93.63
79534;BME280;68982;52.160;6.736;2023-09-19T02:59:56;100532.53;;;13.78;92.96
79534;BME280;68982;52.160;6.736;2023-09-19T03:02:21;100528.19;;;13.71;93.52
79534;BME280;68982;52.160;6.736;2023-09-19T03:04:49;100539.25;;;13.69;93.04
79534;BME280;68982;52.160;6.736;2023-09-19T03:07:16;100531.56;;;13.66;93.90
79534;BME280;68982;52.160;6.736;2023-09-19T03:09:42;100533.44;;;13.65;93.23
79534;BME280;68982;52.160;6.736;2023-09-19T03:12:08;100543.84;;;13.68;93.13
79534;BME280;68982;52.160;6.736;2023-09-19T03:14:33;100533.25;;;13.60;92.91
79534;BME280;68982;52.160;6.736;2023-09-19T03:17:00;100544.31;;;13.59;93.50
79534;BME280;68982;52.160;6.736;2023-09-19T03:19:26;100551.59;;;13.58;93.24
79534;BME280;68982;52.160;6.736;2023-09-19T03:21:52;100548.28;;;13.56;93.23
79534;BME280;68982;52.160;6.736;2023-09-19T03:24:18;100557.44;;;13.55;93.06
79534;BME280;68982;52.160;6.736;2023-09-19T03:26:44;100563.69;;;13.56;93.24
79534;BME280;68982;52.160;6.736;2023-09-19T03:29:10;100550.59;;;13.53;92.87
79534;BME280;68982;52.160;6.736;2023-09-19T03:31:36;100556.66;;;13.48;93.47
79534;BME280;68982;52.160;6.736;2023-09-19T03:34:02;100560.38;;;13.47;92.79
79534;BME280;68982;52.160;6.736;2023-09-19T03:36:29;100555.81;;;13.47;93.35
79534;BME280;68982;52.160;6.736;2023-09-19T03:38:54;100558.94;;;13.44;92.71
79534;BME280;68982;52.160;6.736;2023-09-19T03:41:19;100552.53;;;13.39;92.93
79534;BME280;68982;52.160;6.736;2023-09-19T03:43:45;100552.69;;;13.44;92.08
79534;BME280;68982;52.160;6.736;2023-09-19T03:46:10;100555.59;;;13.49;92.57
79534;BME280;68982;52.160;6.736;2023-09-19T03:48:37;100552.28;;;13.40;92.38
79534;BME280;68982;52.160;6.736;2023-09-19T03:51:03;100554.59;;;13.43;91.50
79534;BME280;68982;52.160;6.736;2023-09-19T03:53:28;100547.72;;;13.41;92.07
79534;BME280;68982;52.160;6.736;2023-09-19T03:55:54;100541.69;;;13.39;91.13
79534;BME280;68982;52.160;6.736;2023-09-19T03:58:20;100560.22;;;13.42;92.15
79534;BME280;68982;52.160;6.736;2023-09-19T04:00:45;100549.41;;;13.35;91.22
79534;BME280;68982;52.160;6.736;2023-09-19T04:03:11;100553.16;;;13.34;91.41
79534;BME280;68982;52.160;6.736;2023-09-19T04:05:44;100555.03;;;13.34;91.45
79534;BME280;68982;52.160;6.736;2023-09-19T04:08:10;100555.66;;;13.29;91.37
79534;BME280;68982;52.160;6.736;2023-09-19T04:10:35;100566.28;;;13.24;90.34
79534;BME280;68982;52.160;6.736;2023-09-19T04:13:00;100557.09;;;13.25;90.62
79534;BME280;68982;52.160;6.736;2023-09-19T04:15:26;100543.56;;;13.18;90.64
79534;BME280;68982;52.160;6.736;2023-09-19T04:17:51;100553.38;;;13.19;90.36
79534;BME280;68982;52.160;6.736;2023-09-19T04:20:20;100545.66;;;13.23;90.30
79534;BME280;68982;52.160;6.736;2023-09-19T04:22:47;100544.44;;;13.12;90.43
79534;BME280;68982;52.160;6.736;2023-09-19T04:25:13;100536.50;;;13.17;89.76
79534;BME280;68982;52.160;6.736;2023-09-19T04:27:38;100542.59;;;12.99;89.62
79534;BME280;68982;52.160;6.736;2023-09-19T04:30:05;100542.81;;;12.98;89.47
79534;BME280;68982;52.160;6.736;2023-09-19T04:32:36;100567.59;;;12.95;89.92
79534;BME280;68982;52.160;6.736;2023-09-19T04:35:08;100586.97;;;12.98;89.63
79534;BME280;68982;52.160;6.736;2023-09-19T04:37:38;100600.91;;;12.95;89.95
79534;BME280;68982;52.160;6.736;2023-09-19T04:40:08;100589.88;;;12.90;89.83
79534;BME280;68982;52.160;6.736;2023-09-19T04:42:38;100584.28;;;12.78;88.61
79534;BME280;68982;52.160;6.736;2023-09-19T04:45:04;100602.97;;;12.86;89.07
79534;BME280;68982;52.160;6.736;2023-09-19T04:47:30;100613.19;;;12.84;88.14
79534;BME280;68982;52.160;6.736;2023-09-19T04:49:55;100611.53;;;12.83;88.10
79534;BME280;68982;52.160;6.736;2023-09-19T04:52:21;100613.19;;;12.78;87.89
79534;BME280;68982;52.160;6.736;2023-09-19T04:54:47;100613.41;;;12.76;88.79
79534;BME280;68982;52.160;6.736;2023-09-19T04:57:13;100617.34;;;12.80;88.57
79534;BME280;68982;52.160;6.736;2023-09-19T04:59:39;100626.31;;;12.81;87.88
79534;BME280;68982;52.160;6.736;2023-09-19T05:02:06;100621.94;;;12.73;87.99
79534;BME280;68982;52.160;6.736;2023-09-19T05:04:33;100620.03;;;12.74;87.87
79534;BME280;68982;52.160;6.736;2023-09-19T05:06:59;100624.84;;;12.78;87.14
79534;BME280;68982;52.160;6.736;2023-09-19T05:09:26;100613.41;;;12.76;87.25
79534;BME280;68982;52.160;6.736;2023-09-19T05:11:51;100630.28;;;12.85;86.67
79534;BME280;68982;52.160;6.736;2023-09-19T05:14:18;100630.03;;;12.80;86.11
79534;BME280;68982;52.160;6.736;2023-09-19T05:16:44;100631.50;;;12.76;86.14
79534;BME280;68982;52.160;6.736;2023-09-19T05:19:09;100625.47;;;12.74;86.08
79534;BME280;68982;52.160;6.736;2023-09-19T05:21:36;100622.97;;;12.72;86.24
79534;BME280;68982;52.160;6.736;2023-09-19T05:24:06;100626.72;;;12.78;85.57
79534;BME280;68982;52.160;6.736;2023-09-19T05:26:32;100637.53;;;12.78;85.40
79534;BME280;68982;52.160;6.736;2023-09-19T05:28:58;100630.88;;;12.74;85.48
79534;BME280;68982;52.160;6.736;2023-09-19T05:31:23;100622.16;;;12.72;86.06
79534;BME280;68982;52.160;6.736;2023-09-19T05:33:49;100633.38;;;12.75;85.67
79534;BME280;68982;52.160;6.736;2023-09-19T05:36:15;100638.78;;;12.75;85.83
79534;BME280;68982;52.160;6.736;2023-09-19T05:38:41;100630.03;;;12.73;85.77
79534;BME280;68982;52.160;6.736;2023-09-19T05:41:07;100631.91;;;12.79;84.90
79534;BME280;68982;52.160;6.736;2023-09-19T05:43:34;100630.28;;;12.78;84.96
79534;BME280;68982;52.160;6.736;2023-09-19T05:46:03;100637.34;;;12.79;85.27
79534;BME280;68982;52.160;6.736;2023-09-19T05:48:28;100646.72;;;12.83;85.01
79534;BME280;68982;52.160;6.736;2023-09-19T05:50:54;100650.44;;;12.89;84.74
79534;BME280;68982;52.160;6.736;2023-09-19T05:53:19;100654.63;;;12.92;84.94
79534;BME280;68982;52.160;6.736;2023-09-19T05:55:45;100656.91;;;12.95;84.81
79534;BME280;68982;52.160;6.736;2023-09-19T05:58:11;100646.50;;;12.92;84.44
79534;BME280;68982;52.160;6.736;2023-09-19T06:00:39;100651.06;;;12.98;84.93
79534;BME280;68982;52.160;6.736;2023-09-19T06:03:07;100643.16;;;12.96;85.78
79534;BME280;68982;52.160;6.736;2023-09-19T06:05:33;100642.13;;;12.97;85.15
79534;BME280;68982;52.160;6.736;2023-09-19T06:07:58;100655.84;;;13.02;85.41
79534;BME280;68982;52.160;6.736;2023-09-19T06:10:36;100639.41;;;12.97;84.58
79534;BME280;68982;52.160;6.736;2023-09-19T06:13:04;100629.63;;;13.03;84.63
79534;BME280;68982;52.160;6.736;2023-09-19T06:15:30;100637.13;;;13.07;84.50
79534;BME280;68982;52.160;6.736;2023-09-19T06:17:58;100631.91;;;13.06;85.37
79534;BME280;68982;52.160;6.736;2023-09-19T06:20:28;100626.69;;;13.11;85.33
79534;BME280;68982;52.160;6.736;2023-09-19T06:22:53;100648.59;;;13.03;85.09
79534;BME280;68982;52.160;6.736;2023-09-19T06:25:19;100645.66;;;13.04;85.62
79534;BME280;68982;52.160;6.736;2023-09-19T06:27:48;100651.69;;;13.06;85.74
79534;BME280;68982;52.160;6.736;2023-09-19T06:30:14;100664.19;;;13.07;85.12
79534;BME280;68982;52.160;6.736;2023-09-19T06:32:42;100664.59;;;13.04;85.86
79534;BME280;68982;52.160;6.736;2023-09-19T06:35:09;100660.88;;;12.99;86.01
79534;BME280;68982;52.160;6.736;2023-09-19T06:37:36;100661.69;;;13.06;84.96
79534;BME280;68982;52.160;6.736;2023-09-19T06:42:34;100671.47;;;13.07;85.13
79534;BME280;68982;52.160;6.736;2023-09-19T06:45:03;100669.81;;;13.06;85.67
79534;BME280;68982;52.160;6.736;2023-09-19T06:47:28;100676.47;;;13.10;86.12
79534;BME280;68982;52.160;6.736;2023-09-19T06:49:55;100673.75;;;13.10;86.51
79534;BME280;68982;52.160;6.736;2023-09-19T06:52:20;100675.84;;;13.15;86.65
79534;BME280;68982;52.160;6.736;2023-09-19T06:54:46;100678.94;;;13.25;86.24
79534;BME280;68982;52.160;6.736;2023-09-19T06:57:12;100672.06;;;13.22;85.45
79534;BME280;68982;52.160;6.736;2023-09-19T06:59:38;100674.59;;;13.31;86.51
79534;BME280;68982;52.160;6.736;2023-09-19T07:02:04;100675.03;;;13.34;85.91
79534;BME280;68982;52.160;6.736;2023-09-19T07:04:31;100673.97;;;13.35;86.36
79534;BME280;68982;52.160;6.736;2023-09-19T07:06:57;100673.53;;;13.45;86.42
79534;BME280;68982;52.160;6.736;2023-09-19T07:09:23;100672.91;;;13.56;85.68
79534;BME280;68982;52.160;6.736;2023-09-19T07:11:49;100669.34;;;13.56;86.22
79534;BME280;68982;52.160;6.736;2023-09-19T07:14:16;100681.59;;;13.65;86.10
79534;BME280;68982;52.160;6.736;2023-09-19T07:16:41;100671.38;;;13.67;85.61
79534;BME280;68982;52.160;6.736;2023-09-19T07:19:09;100666.38;;;13.77;85.31
79534;BME280;68982;52.160;6.736;2023-09-19T07:21:35;100660.75;;;13.79;85.38
79534;BME280;68982;52.160;6.736;2023-09-19T07:24:04;100670.94;;;13.83;84.86
79534;BME280;68982;52.160;6.736;2023-09-19T07:26:30;100679.47;;;13.87;85.35
79534;BME280;68982;52.160;6.736;2023-09-19T07:28:56;100680.28;;;13.94;86.50
79534;BME280;68982;52.160;6.736;2023-09-19T07:31:22;100688.59;;;13.99;85.44
79534;BME280;68982;52.160;6.736;2023-09-19T07:33:48;100674.59;;;14.02;84.45
79534;BME280;68982;52.160;6.736;2023-09-19T07:36:13;100678.56;;;14.06;85.64
79534;BME280;68982;52.160;6.736;2023-09-19T07:38:40;100681.84;;;14.15;85.13
79534;BME280;68982;52.160;6.736;2023-09-19T07:41:06;100683.50;;;14.23;85.65
79534;BME280;68982;52.160;6.736;2023-09-19T07:43:32;100684.28;;;14.30;84.85
79534;BME280;68982;52.160;6.736;2023-09-19T07:46:03;100689.06;;;14.35;85.17
79534;BME280;68982;52.160;6.736;2023-09-19T07:48:28;100685.09;;;14.37;85.41
79534;BME280;68982;52.160;6.736;2023-09-19T07:50:54;100683.41;;;14.43;84.07
79534;BME280;68982;52.160;6.736;2023-09-19T07:53:20;100683.97;;;14.45;84.63
79534;BME280;68982;52.160;6.736;2023-09-19T07:55:45;100690.03;;;14.47;85.59
79534;BME280;68982;52.160;6.736;2023-09-19T07:58:13;100689.19;;;14.46;84.56
79534;BME280;68982;52.160;6.736;2023-09-19T08:00:38;100697.13;;;14.55;83.66
79534;BME280;68982;52.160;6.736;2023-09-19T08:03:04;100704.34;;;14.67;85.34
79534;BME280;68982;52.160;6.736;2023-09-19T08:05:29;100699.25;;;14.78;84.93
79534;BME280;68982;52.160;6.736;2023-09-19T08:07:54;100699.22;;;14.84;84.52
79534;BME280;68982;52.160;6.736;2023-09-19T08:10:21;100700.22;;;14.90;82.71
79534;BME280;68982;52.160;6.736;2023-09-19T08:12:48;100700.19;;;14.97;82.69
79534;BME280;68982;52.160;6.736;2023-09-19T08:15:18;100702.13;;;15.15;82.39
79534;BME280;68982;52.160;6.736;2023-09-19T08:17:45;100711.66;;;15.24;80.80
79534;BME280;68982;52.160;6.736;2023-09-19T08:20:11;100707.97;;;15.37;82.45
79534;BME280;68982;52.160;6.736;2023-09-19T08:22:50;100703.09;;;15.45;79.90
79534;BME280;68982;52.160;6.736;2023-09-19T08:25:25;100721.88;;;15.47;80.19
79534;BME280;68982;52.160;6.736;2023-09-19T08:27:54;100716.31;;;15.60;80.59
79534;BME280;68982;52.160;6.736;2023-09-19T08:30:23;100715.41;;;15.66;79.72
79534;BME280;68982;52.160;6.736;2023-09-19T08:32:49;100707.81;;;15.75;78.90
79534;BME280;68982;52.160;6.736;2023-09-19T08:35:15;100710.72;;;15.99;78.35
79534;BME280;68982;52.160;6.736;2023-09-19T08:37:41;100714.16;;;16.24;76.85
79534;BME280;68982;52.160;6.736;2023-09-19T08:40:07;100704.06;;;16.43;76.93
79534;BME280;68982;52.160;6.736;2023-09-19T08:42:50;100711.16;;;16.74;74.73
79534;BME280;68982;52.160;6.736;2023-09-19T08:45:16;100720.38;;;16.92;74.88
79534;BME280;68982;52.160;6.736;2023-09-19T08:48:00;100716.94;;;17.08;74.21
79534;BME280;68982;52.160;6.736;2023-09-19T08:50:28;100730.25;;;17.16;72.56
79534;BME280;68982;52.160;6.736;2023-09-19T08:52:55;100729.03;;;17.24;72.69
79534;BME280;68982;52.160;6.736;2023-09-19T08:55:27;100718.75;;;17.26;71.51
79534;BME280;68982;52.160;6.736;2023-09-19T08:57:59;100707.38;;;17.53;73.59
79534;BME280;68982;52.160;6.736;2023-09-19T09:00:27;100712.72;;;17.48;71.92
79534;BME280;68982;52.160;6.736;2023-09-19T09:02:54;100709.72;;;17.85;71.50
79534;BME280;68982;52.160;6.736;2023-09-19T09:05:20;100706.41;;;17.83;72.27
79534;BME280;68982;52.160;6.736;2023-09-19T09:07:49;100717.09;;;17.72;71.40
79534;BME280;68982;52.160;6.736;2023-09-19T09:10:18;100690.06;;;17.47;70.22
79534;BME280;68982;52.160;6.736;2023-09-19T09:12:47;100711.16;;;17.40;71.80
79534;BME280;68982;52.160;6.736;2023-09-19T09:15:12;100704.03;;;17.27;72.06
79534;BME280;68982;52.160;6.736;2023-09-19T09:17:41;100717.31;;;17.35;72.77
79534;BME280;68982;52.160;6.736;2023-09-19T09:20:08;100708.78;;;17.32;72.66
79534;BME280;68982;52.160;6.736;2023-09-19T09:22:35;100714.59;;;17.35;73.32
79534;BME280;68982;52.160;6.736;2023-09-19T09:25:01;100708.31;;;17.47;73.97
79534;BME280;68982;52.160;6.736;2023-09-19T09:27:29;100712.34;;;17.44;72.41
79534;BME280;68982;52.160;6.736;2023-09-19T09:29:55;100708.31;;;17.70;72.30
79534;BME280;68982;52.160;6.736;2023-09-19T09:34:51;100713.88;;;17.75;71.19
79534;BME280;68982;52.160;6.736;2023-09-19T09:37:17;100700.56;;;18.02;70.96
79534;BME280;68982;52.160;6.736;2023-09-19T09:39:54;100699.38;;;17.98;71.08
79534;BME280;68982;52.160;6.736;2023-09-19T09:42:36;100686.56;;;18.11;70.94
79534;BME280;68982;52.160;6.736;2023-09-19T09:47:48;100682.66;;;18.07;69.92
79534;BME280;68982;52.160;6.736;2023-09-19T09:50:28;100683.13;;;18.04;71.19
79534;BME280;68982;52.160;6.736;2023-09-19T09:52:55;100687.78;;;18.03;70.13
79534;BME280;68982;52.160;6.736;2023-09-19T09:55:57;100681.91;;;18.11;71.40
79534;BME280;68982;52.160;6.736;2023-09-19T09:58:23;100677.94;;;18.31;70.22
79534;BME280;68982;52.160;6.736;2023-09-19T10:00:56;100685.22;;;18.13;69.69
79534;BME280;68982;52.160;6.736;2023-09-19T10:03:32;100690.75;;;18.59;69.69
79534;BME280;68982;52.160;6.736;2023-09-19T10:05:59;100688.69;;;18.95;67.43
79534;BME280;68982;52.160;6.736;2023-09-19T10:08:27;100677.31;;;19.20;65.56
79534;BME280;68982;52.160;6.736;2023-09-19T10:10:56;100679.47;;;19.35;66.09
79534;BME280;68982;52.160;6.736;2023-09-19T10:13:35;100681.97;;;19.58;64.05
79534;BME280;68982;52.160;6.736;2023-09-19T10:16:06;100679.06;;;19.09;64.25
79534;BME280;68982;52.160;6.736;2023-09-19T10:18:36;100688.66;;;19.45;62.73
79534;BME280;68982;52.160;6.736;2023-09-19T10:21:04;100684.25;;;19.44;65.49
79534;BME280;68982;52.160;6.736;2023-09-19T10:23:32;100689.41;;;19.07;63.52
79534;BME280;68982;52.160;6.736;2023-09-19T10:26:01;100691.47;;;19.00;63.93
79534;BME280;68982;52.160;6.736;2023-09-19T10:28:28;100683.38;;;19.22;64.03
79534;BME280;68982;52.160;6.736;2023-09-19T10:30:54;100681.78;;;19.26;63.89
79534;BME280;68982;52.160;6.736;2023-09-19T10:33:24;100680.75;;;19.49;62.90
79534;BME280;68982;52.160;6.736;2023-09-19T10:35:56;100680.38;;;19.07;64.37
79534;BME280;68982;52.160;6.736;2023-09-19T10:38:26;100683.69;;;18.63;64.95
79534;BME280;68982;52.160;6.736;2023-09-19T10:40:55;100685.53;;;18.57;65.92
79534;BME280;68982;52.160;6.736;2023-09-19T10:43:26;100688.19;;;18.52;64.78
79534;BME280;68982;52.160;6.736;2023-09-19T10:45:58;100687.25;;;18.47;65.63
79534;BME280;68982;52.160;6.736;2023-09-19T10:48:25;100672.47;;;18.59;65.12
79534;BME280;68982;52.160;6.736;2023-09-19T10:50:57;100663.34;;;18.99;64.50
79534;BME280;68982;52.160;6.736;2023-09-19T10:53:26;100684.84;;;18.79;64.07
79534;BME280;68982;52.160;6.736;2023-09-19T10:55:56;100682.56;;;18.88;62.90
79534;BME280;68982;52.160;6.736;2023-09-19T10:58:29;100675.72;;;18.44;63.70
79534;BME280;68982;52.160;6.736;2023-09-19T11:00:57;100686.94;;;18.60;65.64
79534;BME280;68982;52.160;6.736;2023-09-19T11:03:26;100673.84;;;18.91;65.01
79534;BME280;68982;52.160;6.736;2023-09-19T11:06:09;100686.69;;;19.24;65.10
79534;BME280;68982;52.160;6.736;2023-09-19T11:09:03;100680.13;;;19.25;63.62
79534;BME280;68982;52.160;6.736;2023-09-19T11:14:28;100680.47;;;19.12;63.75
79534;BME280;68982;52.160;6.736;2023-09-19T11:30:49;100656.59;;;18.73;64.07
79534;BME280;68982;52.160;6.736;2023-09-19T11:33:21;100655.25;;;18.76;63.76
79534;BME280;68982;52.160;6.736;2023-09-19T11:36:11;100647.97;;;18.64;63.30
79534;BME280;68982;52.160;6.736;2023-09-19T11:49:17;100643.06;;;18.50;64.32
79534;BME280;68982;52.160;6.736;2023-09-19T11:51:50;100639.47;;;18.61;65.05
79534;BME280;68982;52.160;6.736;2023-09-19T11:54:18;100619.16;;;18.74;64.82
79534;BME280;68982;52.160;6.736;2023-09-19T11:56:53;100622.84;;;18.79;63.15
79534;BME280;68982;52.160;6.736;2023-09-19T11:59:30;100627.00;;;18.82;63.93
79534;BME280;68982;52.160;6.736;2023-09-19T12:01:57;100618.22;;;18.80;62.58
79534;BME280;68982;52.160;6.736;2023-09-19T12:04:43;100626.31;;;18.92;63.47
79534;BME280;68982;52.160;6.736;2023-09-19T12:07:11;100625.56;;;18.96;63.64
79534;BME280;68982;52.160;6.736;2023-09-19T12:10:03;100625.50;;;18.91;65.12
79534;BME280;68982;52.160;6.736;2023-09-19T12:12:29;100637.00;;;18.93;63.77
79534;BME280;68982;52.160;6.736;2023-09-19T12:14:56;100628.94;;;18.70;64.22
79534;BME280;68982;52.160;6.736;2023-09-19T12:20:02;100625.81;;;18.61;65.35
79534;BME280;68982;52.160;6.736;2023-09-19T12:22:53;100616.31;;;18.80;65.03
79534;BME280;68982;52.160;6.736;2023-09-19T12:25:20;100610.72;;;18.75;64.15
79534;BME280;68982;52.160;6.736;2023-09-19T12:27:50;100625.81;;;18.78;63.90
79534;BME280;68982;52.160;6.736;2023-09-19T12:30:27;100624.44;;;18.92;64.25
79534;BME280;68982;52.160;6.736;2023-09-19T12:32:53;100629.78;;;19.21;65.38
79534;BME280;68982;52.160;6.736;2023-09-19T12:35:29;100624.28;;;19.38;62.73
79534;BME280;68982;52.160;6.736;2023-09-19T12:37:55;100611.38;;;19.72;63.43
79534;BME280;68982;52.160;6.736;2023-09-19T12:40:22;100612.97;;;19.51;60.76
79534;BME280;68982;52.160;6.736;2023-09-19T12:42:53;100607.31;;;19.58;61.08
79534;BME280;68982;52.160;6.736;2023-09-19T12:45:23;100609.47;;;19.56;61.37
79534;BME280;68982;52.160;6.736;2023-09-19T12:48:20;100623.44;;;19.37;61.64
79534;BME280;68982;52.160;6.736;2023-09-19T12:53:39;100612.13;;;19.12;62.12
79534;BME280;68982;52.160;6.736;2023-09-19T12:56:08;100605.88;;;19.33;61.14
79534;BME280;68982;52.160;6.736;2023-09-19T12:58:55;100607.63;;;19.39;61.45
79534;BME280;68982;52.160;6.736;2023-09-19T13:01:20;100618.25;;;19.58;61.42
79534;BME280;68982;52.160;6.736;2023-09-19T13:04:20;100606.63;;;19.45;62.38
79534;BME280;68982;52.160;6.736;2023-09-19T13:06:53;100600.56;;;19.87;61.48
79534;BME280;68982;52.160;6.736;2023-09-19T13:09:21;100596.56;;;19.51;59.61
79534;BME280;68982;52.160;6.736;2023-09-19T13:11:48;100602.41;;;19.38;60.75
79534;BME280;68982;52.160;6.736;2023-09-19T13:14:20;100597.72;;;19.16;61.30
79534;BME280;68982;52.160;6.736;2023-09-19T13:16:56;100613.81;;;19.13;61.67
79534;BME280;68982;52.160;6.736;2023-09-19T13:19:45;100615.38;;;18.92;61.31
79534;BME280;68982;52.160;6.736;2023-09-19T13:22:36;100616.56;;;18.79;62.29
79534;BME280;68982;52.160;6.736;2023-09-19T13:25:04;100606.53;;;18.68;62.82
79534;BME280;68982;52.160;6.736;2023-09-19T13:27:32;100610.56;;;18.65;63.43
79534;BME280;68982;52.160;6.736;2023-09-19T13:29:58;100602.13;;;18.67;62.93
79534;BME280;68982;52.160;6.736;2023-09-19T13:32:24;100607.94;;;18.70;63.65
79534;BME280;68982;52.160;6.736;2023-09-19T13:34:49;100607.25;;;18.63;63.17
79534;BME280;68982;52.160;6.736;2023-09-19T13:37:16;100599.78;;;18.58;63.49
79534;BME280;68982;52.160;6.736;2023-09-19T13:39:43;100607.56;;;18.50;63.27
79534;BME280;68982;52.160;6.736;2023-09-19T13:42:13;100597.50;;;18.50;63.58
79534;BME280;68982;52.160;6.736;2023-09-19T13:44:38;100574.31;;;18.53;62.46
79534;BME280;68982;52.160;6.736;2023-09-19T13:47:03;100591.19;;;18.50;62.57
79534;BME280;68982;52.160;6.736;2023-09-19T13:49:35;100597.72;;;18.49;62.58
79534;BME280;68982;52.160;6.736;2023-09-19T13:52:01;100604.66;;;18.39;62.83